Decoded Metar for KCVW ( in ) (IATA:) | Meteo·Mobile Aviation Weather
aviador You're here:

KCVW Decoded Metar

in
Report Time2018-10-22 14:40:00
UTC Time2018-10-22 14:54:39
Flight Rules vfr VFR
Wind040° at 09 kt
W.Rank040° ranks 10
Current wind is above 040° avg. (8.1)
Visibility9999 m
Phenomena:N/A
Clouds:N/A
Expected CloudBase > 2,000 ft AGL from Temp-Dew spread
CeilingNone
Temp15°C
Dew Point10°C (72% RH)
AAT11.8°C
QNH1022 hPa
Raw Report
KCVW 221440Z AUTO 04009KT 10SM CLR 15/10 A3017 RMK A01=

Extra information for KCVW:More info

Social comments